Latest Weather Observations for King Island Airport

IDT60801

Issued at 9:31 am EST Saturday 30 July 2016 (issued every 30 minutes, with the page automatically refreshed every 10 minutes)

About weather observations | Map of weather stations | Latest weather observations for TAS | Other Formats
Station Details ID: 098017 Name: KING ISLAND AIRPORT Lat: -39.88 Lon: 143.88 Height: 37.0 m
Data from the previous 72 hours. | See also: Recent months at King Island Airport
Date/Time
EST
Temp
°C
App
Temp
°C
Dew
Point
°C
Rel
Hum
%
Delta-T
°C
Wind Press
QNH
hPa
Press
MSL
hPa
Rain since
9am
mm
Dir  Spd
km/h
Gust
km/h
Spd
kts
Gust
kts
30/09:30am 10.5 7.2 9.7 95 0.4 NNE 17 20 9 11 1017.9 1017.9 0.0
30/09:00am 9.8 7.1 9.0 95 0.4 NE 13 15 7 8 1018.3 1018.3 0.2
30/08:30am 8.6 6.4 7.8 95 0.4 NE 9 11 5 6 1018.7 1018.7 0.2
30/08:00am 6.7 3.7 6.0 95 0.3 NE 11 11 6 6 1018.7 1018.7 0.2
30/07:30am 6.1 3.7 5.2 94 0.4 ENE 7 9 4 5 1019.1 1019.1 0.2
30/07:00am 6.3 3.9 5.3 93 0.4 ENE 7 9 4 5 1019.1 1019.1 0.2
30/06:30am 6.7 4.0 5.7 93 0.4 E 9 9 5 5 1019.1 1019.1 0.2
30/06:00am 7.3 5.1 6.1 92 0.5 E 7 9 4 5 1019.2 1019.2 0.2
30/05:30am 8.4 6.4 7.0 91 0.7 NE 7 11 4 6 1019.5 1019.5 0.2
30/05:00am 8.6 6.2 7.1 90 0.7 E 9 11 5 6 1019.7 1019.7 0.2
30/04:30am 8.8 8.2 7.3 90 0.7 CALM 0 0 0 0 1019.8 1019.8 0.2
30/04:00am 8.7 8.1 7.2 90 0.7 CALM 0 0 0 0 1019.9 1019.9 0.2
30/03:30am 8.4 7.7 7.0 91 0.7 CALM 0 7 0 4 1020.0 1020.0 0.2
30/03:00am 8.3 7.2 6.9 91 0.6 NE 2 7 1 4 1020.1 1020.1 0.2
30/02:30am 8.2 6.1 6.7 90 0.7 E 7 7 4 4 1020.3 1020.3 0.2
30/02:00am 8.2 7.4 6.5 89 0.8 CALM 0 0 0 0 1020.4 1020.4 0.2
30/01:30am 8.2 7.4 6.3 88 0.9 CALM 0 0 0 0 1020.4 1020.4 0.2
30/01:00am 8.3 6.1 6.4 88 0.9 ESE 7 7 4 4 1020.4 1020.4 0.2
30/12:30am 8.6 6.9 6.1 84 1.1 SSE 4 7 2 4 1020.5 1020.5 0.2
30/12:00am 9.0 6.8 6.3 83 1.2 S 7 9 4 5 1020.6 1020.6 0.2
 
Date/Time
EST
Temp
°C
App
Temp
°C
Dew
Point
°C
Rel
Hum
%
Delta-T
°C
Wind Press
QNH
hPa
Press
MSL
hPa
Rain since
9am
mm
Dir  Spd
km/h
Gust
km/h
Spd
kts
Gust
kts
29/11:30pm 9.7 6.5 6.8 82 1.4 SSW 13 15 7 8 1020.5 1020.5 0.2
29/11:00pm 10.1 7.6 8.0 87 1.0 SW 11 13 6 7 1020.4 1020.4 0.2
29/10:30pm 10.3 7.0 8.2 87 1.0 SW 15 19 8 10 1020.4 1020.4 0.2
29/10:00pm 10.5 7.6 8.1 85 1.2 SW 13 15 7 8 1020.3 1020.3 0.2
29/09:30pm 11.2 7.7 8.9 86 1.1 SW 17 26 9 14 1020.3 1020.3 0.2
29/09:00pm 10.8 6.7 8.6 86 1.1 SW 20 28 11 15 1019.9 1019.9 0.2
29/08:30pm 11.4 7.0 9.0 85 1.2 WSW 22 30 12 16 1019.8 1019.8 0.2
29/08:00pm 11.4 6.5 8.6 83 1.4 WSW 24 33 13 18 1019.5 1019.5 0.2
29/07:30pm 11.7 6.3 8.0 78 1.8 WSW 26 32 14 17 1019.1 1019.1 0.2
29/07:00pm 11.2 5.3 7.5 78 1.8 WSW 28 37 15 20 1018.8 1018.8 0.2
29/06:30pm 11.3 5.2 8.3 82 1.5 WSW 30 39 16 21 1018.4 1018.4 0.2
29/06:00pm 11.7 5.9 9.6 87 1.1 WSW 30 44 16 24 1017.8 1017.8 0.2
29/05:30pm 12.1 6.2 8.9 81 1.6 WSW 30 41 16 22 1017.4 1017.4 0.2
29/05:00pm 12.2 5.2 8.5 78 1.8 WSW 35 52 19 28 1017.1 1017.1 0.2
29/04:35pm 12.4 6.2 9.2 81 1.6 WSW 32 50 17 27 1016.9 1016.9 0.2
29/04:30pm 12.6 6.4 9.2 80 1.7 WSW 32 43 17 23 1016.9 1016.9 0.2
29/04:08pm 13.0 5.0 8.9 76 2.1 W 41 59 22 32 1016.8 1016.8 0.2
29/04:00pm 13.1 4.7 8.8 75 2.2 W 43 59 23 32 1016.8 1016.8 0.2
29/03:40pm 13.3 6.7 9.9 80 1.8 W 35 54 19 29 1016.7 1016.7 0.2
29/03:30pm 13.4 6.0 9.8 79 1.9 W 39 54 21 29 1016.6 1016.6 0.2
29/03:26pm 13.3 6.6 9.5 78 1.9 W 35 54 19 29 1016.6 1016.6 0.2
29/03:00pm 13.3 6.5 9.4 77 2.0 W 35 50 19 27 1016.5 1016.5 0.2
29/02:30pm 13.5 6.7 9.4 76 2.1 W 35 54 19 29 1016.5 1016.5 0.2
29/02:29pm 13.5 6.7 9.4 76 2.1 W 35 54 19 29 1016.4 1016.4 0.2
29/02:00pm 13.3 6.4 9.0 75 2.2 W 35 50 19 27 1016.4 1016.4 0.2
29/01:33pm 13.0 6.9 10.5 85 1.3 W 33 54 18 29 1016.4 1016.4 0.2
29/01:30pm 12.9 6.8 10.6 86 1.2 W 33 48 18 26 1016.4 1016.4 0.2
29/01:00pm 13.4 5.9 9.6 78 1.9 W 39 54 21 29 1016.4 1016.4 0.0
29/12:40pm 13.3 6.8 10.3 82 1.6 W 35 54 19 29 1016.5 1016.5 0.0
29/12:30pm 13.0 6.5 10.4 84 1.4 W 35 48 19 26 1016.6 1016.6 0.0
29/12:11pm 12.6 6.3 9.6 82 1.5 W 33 52 18 28 1016.7 1016.7 0.0
29/12:00pm 12.8 5.3 9.6 81 1.6 W 39 54 21 29 1016.8 1016.8 0.0
29/11:43am 13.0 6.9 10.4 84 1.4 W 33 46 18 25 1017.0 1017.0 0.0
29/11:30am 13.3 7.6 11.2 87 1.1 W 32 46 17 25 1017.0 1017.0 0.0
29/11:00am 12.7 6.5 10.1 84 1.3 WSW 33 50 18 27 1017.1 1017.1 0.0
29/10:30am 13.1 7.0 10.3 83 1.5 W 33 44 18 24 1016.9 1016.9 0.0
29/10:00am 13.1 7.0 10.3 83 1.4 W 33 48 18 26 1016.8 1016.8 0.0
29/09:30am 12.0 5.5 10.2 89 0.9 W 35 52 19 28 1016.8 1016.8 0.0
29/09:16am 11.6 6.0 10.2 91 0.7 W 30 43 16 23 1016.8 1016.8 0.0
29/09:00am 11.8 5.6 10.2 90 0.8 W 33 44 18 24 1016.7 1016.7 2.0
29/08:57am 11.9 5.9 10.0 88 1.0 W 32 43 17 23 1016.7 1016.7 1.8
29/08:30am 12.0 6.3 9.9 87 1.1 W 30 41 16 22 1016.6 1016.6 1.8
29/08:00am 11.7 4.6 9.4 86 1.2 W 37 52 20 28 1016.6 1016.6 1.8
29/07:30am 11.5 5.3 10.1 91 0.7 W 33 54 18 29 1016.4 1016.4 1.8
29/07:06am 11.3 4.6 9.6 89 0.9 W 35 54 19 29 1016.3 1016.3 1.4
29/07:04am 11.2 4.1 9.5 89 0.9 W 37 54 20 29 1016.3 1016.3 1.4
29/07:00am 11.3 4.2 9.4 88 1.0 W 37 54 20 29 1016.4 1016.4 1.4
29/06:50am 10.9 4.0 8.7 86 1.1 W 35 52 19 28 1016.2 1016.2 1.4
29/06:30am 11.9 5.5 9.5 85 1.2 W 33 48 18 26 1016.0 1016.0 1.2
29/06:05am 12.1 5.4 9.5 84 1.3 W 35 56 19 30 1016.0 1016.0 1.2
29/06:00am 12.0 5.8 9.4 84 1.3 W 32 48 17 26 1015.9 1015.9 1.2
29/05:39am 12.0 5.1 8.8 81 1.6 W 35 54 19 29 1015.9 1015.9 1.2
29/05:30am 12.2 5.9 8.9 80 1.7 W 32 46 17 25 1015.8 1015.8 1.2
29/05:22am 12.1 5.7 8.6 79 1.7 W 32 50 17 27 1015.8 1015.8 1.2
29/05:00am 12.2 6.0 9.2 82 1.5 W 32 48 17 26 1015.8 1015.8 1.2
29/04:30am 11.9 5.8 9.6 86 1.2 W 32 44 17 24 1015.9 1015.9 1.2
29/04:18am 12.0 5.6 9.2 83 1.4 W 33 52 18 28 1016.0 1016.0 1.2
29/04:00am 12.3 5.4 9.0 80 1.7 W 35 48 19 26 1015.9 1015.9 1.2
29/03:41am 11.9 5.5 8.4 79 1.7 W 32 50 17 27 1016.1 1016.1 1.2
29/03:30am 11.9 4.9 8.4 79 1.7 W 35 50 19 27 1016.2 1016.2 1.2
29/03:06am 11.9 4.4 8.0 77 1.9 W 37 56 20 30 1016.4 1016.4 1.2
29/03:00am 11.8 4.3 8.1 78 1.8 W 37 54 20 29 1016.4 1016.4 1.2
29/02:30am 11.8 4.9 8.8 82 1.5 W 35 54 19 29 1016.6 1016.6 1.2
29/02:00am 11.8 4.8 8.5 80 1.6 W 35 48 19 26 1016.7 1016.7 1.2
29/01:51am 11.9 4.5 8.4 79 1.7 W 37 56 20 30 1016.6 1016.6 1.2
29/01:30am 12.2 5.7 8.9 80 1.7 W 33 48 18 26 1016.9 1016.9 1.2
29/01:00am 12.3 5.1 9.1 81 1.6 W 37 52 20 28 1017.0 1017.0 1.2
29/12:41am 12.3 6.4 9.0 80 1.7 W 30 48 16 26 1017.1 1017.1 1.2
29/12:30am 12.4 5.6 9.1 80 1.7 W 35 52 19 28 1017.2 1017.2 1.2
29/12:00am 12.4 5.9 8.9 79 1.8 W 33 48 18 26 1017.5 1017.5 1.2
 
Date/Time
EST
Temp
°C
App
Temp
°C
Dew
Point
°C
Rel
Hum
%
Delta-T
°C
Wind Press
QNH
hPa
Press
MSL
hPa
Rain since
9am
mm
Dir  Spd
km/h
Gust
km/h
Spd
kts
Gust
kts
28/11:32pm 12.1 5.1 8.6 79 1.7 W 35 54 19 29 1017.7 1017.7 1.2
28/11:30pm 12.1 4.8 8.6 79 1.7 W 37 54 20 29 1017.7 1017.7 1.2
28/11:01pm 11.9 4.2 8.6 80 1.6 WNW 39 57 21 31 1017.9 1017.9 1.2
28/11:00pm 11.9 4.6 8.7 81 1.6 WNW 37 52 20 28 1017.9 1017.9 1.2
28/10:35pm 12.1 5.5 8.6 79 1.7 W 33 52 18 28 1018.2 1018.2 1.2
28/10:30pm 12.0 5.0 8.3 78 1.8 W 35 52 19 28 1018.3 1018.3 1.2
28/10:12pm 12.0 5.0 8.5 79 1.7 W 35 54 19 29 1018.4 1018.4 1.2
28/10:00pm 11.8 5.0 9.4 85 1.2 WNW 35 48 19 26 1018.4 1018.4 1.2
28/09:45pm 11.7 5.3 9.4 86 1.2 W 33 52 18 28 1018.6 1018.6 1.2
28/09:30pm 11.7 5.4 9.1 84 1.3 W 32 41 17 22 1018.6 1018.6 1.2
28/09:00pm 12.1 5.3 7.8 75 2.1 W 33 46 18 25 1018.8 1018.8 1.2
28/08:30pm 11.2 3.5 8.8 85 1.2 WNW 39 57 21 31 1019.0 1019.0 1.2
28/08:06pm 10.9 4.8 9.7 92 0.6 W 32 52 17 28 1019.1 1019.1 1.0
28/08:00pm 11.2 5.9 10.0 92 0.6 W 28 37 15 20 1019.1 1019.1 1.0
28/07:58pm 11.1 5.8 9.9 92 0.6 W 28 37 15 20 1019.1 1019.1 1.0
28/07:41pm 11.2 5.1 9.6 90 0.8 W 32 50 17 27 1019.2 1019.2 0.8
28/07:40pm 11.3 5.2 9.6 89 0.9 W 32 41 17 22 1019.2 1019.2 0.8
28/07:33pm 11.1 4.9 9.5 90 0.8 W 32 50 17 27 1019.0 1019.0 0.8
28/07:30pm 11.0 4.6 9.4 90 0.8 W 33 50 18 27 1019.0 1019.0 0.8
28/07:09pm 11.2 4.9 9.8 91 0.7 W 33 44 18 24 1019.1 1019.1 0.8
28/07:00pm 11.4 5.4 10.0 91 0.7 W 32 50 17 27 1018.9 1018.9 0.8
28/06:50pm 11.2 5.6 10.1 93 0.6 W 30 48 16 26 1018.9 1018.9 0.8
28/06:37pm 11.4 5.5 10.5 94 0.5 W 32 41 17 22 1018.8 1018.8 0.8
28/06:30pm 11.2 5.1 10.3 94 0.5 W 33 46 18 25 1018.8 1018.8 0.8
28/06:15pm 11.5 5.4 10.4 93 0.6 W 33 46 18 25 1018.6 1018.6 0.6
28/06:00pm 11.6 5.7 10.5 93 0.6 W 32 43 17 23 1018.5 1018.5 0.6
28/05:58pm 11.5 5.6 10.4 93 0.6 W 32 43 17 23 1018.5 1018.5 0.6
28/05:48pm 11.4 4.5 10.3 93 0.6 WNW 37 50 20 27 1018.5 1018.5 0.6
28/05:34pm 11.8 5.2 9.9 88 1.0 W 35 46 19 25 1018.7 1018.7 0.6
28/05:30pm 12.0 5.7 9.6 85 1.2 W 33 46 18 25 1018.6 1018.6 0.4
28/05:00pm 11.9 4.6 8.9 82 1.5 WNW 37 52 20 28 1018.8 1018.8 0.4
28/04:35pm 11.8 4.1 8.5 80 1.6 W 39 61 21 33 1018.8 1018.8 0.4
28/04:30pm 12.2 4.8 8.3 77 1.9 W 37 54 20 29 1018.7 1018.7 0.4
28/04:00pm 11.8 4.6 9.2 84 1.3 W 37 56 20 30 1018.7 1018.7 0.4
28/03:45pm 12.3 5.9 8.4 77 1.9 WNW 32 50 17 27 1018.8 1018.8 0.4
28/03:30pm 12.2 5.5 8.1 76 2.0 W 33 44 18 24 1018.7 1018.7 0.4
28/03:10pm 12.3 5.7 8.4 77 1.9 W 33 54 18 29 1018.7 1018.7 0.4
28/03:00pm 12.0 5.4 8.7 80 1.6 W 33 41 18 22 1018.6 1018.6 0.4
28/02:30pm 12.0 5.5 8.1 77 1.9 W 32 50 17 27 1018.5 1018.5 0.4
28/02:00pm 11.7 4.8 7.4 75 2.1 W 33 57 18 31 1018.6 1018.6 0.4
28/01:58pm 11.9 5.4 8.0 77 1.9 W 32 52 17 28 1018.6 1018.6 0.4
28/01:41pm 11.4 4.2 9.0 85 1.2 W 37 54 20 29 1018.6 1018.6 0.4
28/01:34pm 11.1 4.0 9.7 91 0.7 W 37 52 20 28 1018.6 1018.6 0.4
28/01:30pm 11.2 3.8 9.8 91 0.7 W 39 57 21 31 1018.6 1018.6 0.4
28/01:29pm 11.2 4.2 9.8 91 0.7 W 37 57 20 31 1018.6 1018.6 0.4
28/01:24pm 11.7 4.8 10.4 92 0.7 W 37 57 20 31 1018.6 1018.6 0.4
28/01:10pm 11.1 4.1 9.9 92 0.6 W 37 57 20 31 1018.7 1018.7 0.4
28/01:04pm 11.6 4.7 10.3 92 0.7 W 37 57 20 31 1018.8 1018.8 0.4
28/01:00pm 11.9 4.7 10.6 92 0.7 W 39 52 21 28 1018.8 1018.8 0.4
28/12:40pm 11.5 3.3 9.8 89 0.9 W 43 61 23 33 1018.9 1018.9 0.2
28/12:37pm 11.8 3.7 9.9 88 1.0 W 43 61 23 33 1019.0 1019.0 0.2
28/12:35pm 12.0 4.7 10.2 89 0.9 W 39 56 21 30 1019.0 1019.0 0.2
28/12:31pm 12.1 5.3 10.5 90 0.8 W 37 56 20 30 1019.0 1019.0 0.2
28/12:30pm 11.8 4.6 10.4 91 0.7 W 39 56 21 30 1019.0 1019.0 0.2
28/12:20pm 12.0 5.5 10.4 90 0.8 W 35 54 19 29 1019.0 1019.0 0.2
28/12:14pm 12.2 5.8 10.6 90 0.8 W 35 52 19 28 1019.0 1019.0 0.2
28/12:00pm 12.3 6.3 10.7 90 0.8 W 33 52 18 28 1019.1 1019.1 0.2
28/11:33am 12.3 6.1 10.0 86 1.2 W 33 57 18 31 1019.4 1019.4 0.2
28/11:30am 12.1 5.8 9.7 85 1.2 W 33 50 18 27 1019.4 1019.4 0.0
28/11:10am 11.6 5.2 9.5 87 1.1 W 33 52 18 28 1019.5 1019.5 0.0
28/11:00am 11.6 3.7 9.2 85 1.2 W 41 56 22 30 1019.6 1019.6 0.0
28/10:30am 11.9 4.8 9.5 85 1.2 W 37 56 20 30 1019.4 1019.4 0.0
28/10:00am 11.3 4.4 8.9 85 1.2 W 35 56 19 30 1019.2 1019.2 0.0
28/09:51am 11.6 4.7 8.8 83 1.4 W 35 54 19 29 1019.1 1019.1 0.0
28/09:30am 11.9 5.4 8.2 78 1.8 W 32 48 17 26 1019.2 1019.2 0.0
28/09:00am 12.0 4.6 8.5 79 1.7 W 37 52 20 28 1019.1 1019.1 1.8
28/08:34am 12.0 5.0 8.3 78 1.8 W 35 56 19 30 1018.9 1018.9 1.8
28/08:30am 11.9 4.4 8.0 77 1.9 W 37 52 20 28 1018.9 1018.9 1.8
28/08:00am 11.7 5.0 8.0 78 1.8 W 33 46 18 25 1018.7 1018.7 1.8
28/07:30am 11.5 3.9 7.4 76 2.0 W 37 57 20 31 1018.5 1018.5 1.8
28/07:00am 11.8 4.6 7.5 75 2.1 W 35 54 19 29 1018.2 1018.2 1.8
28/06:46am 11.8 4.2 7.7 76 2.0 W 37 56 20 30 1018.1 1018.1 1.8
28/06:30am 11.7 4.6 8.0 78 1.8 W 35 50 19 27 1017.9 1017.9 1.8
28/06:26am 11.8 4.8 8.3 79 1.7 W 35 54 19 29 1017.9 1017.9 1.8
28/06:00am 11.6 4.2 8.5 81 1.5 W 37 50 20 27 1017.8 1017.8 1.8
28/05:30am 11.9 4.0 8.0 77 1.9 W 39 54 21 29 1017.6 1017.6 1.8
28/05:15am 11.9 3.7 8.2 78 1.8 W 41 59 22 32 1017.4 1017.4 1.8
28/05:00am 11.7 3.8 7.8 77 1.9 W 39 54 21 29 1017.2 1017.2 1.8
28/04:30am 11.9 4.2 8.6 80 1.6 W 39 56 21 30 1017.3 1017.3 1.8
28/04:03am 11.6 3.6 9.0 84 1.3 W 41 59 22 32 1017.2 1017.2 1.8
28/04:00am 11.6 3.3 9.2 85 1.2 W 43 59 23 32 1017.2 1017.2 1.8
28/03:55am 11.5 4.4 9.6 88 1.0 W 37 56 20 30 1017.2 1017.2 1.8
28/03:43am 11.6 5.1 10.2 91 0.7 W 35 52 19 28 1017.3 1017.3 1.8
28/03:30am 11.3 5.3 10.0 92 0.7 W 32 44 17 24 1017.3 1017.3 1.8
28/03:26am 11.5 5.6 10.4 93 0.6 W 32 44 17 24 1017.3 1017.3 1.8
28/03:00am 11.1 3.3 9.9 92 0.6 W 41 56 22 30 1017.5 1017.5 1.6
28/02:50am 11.6 5.4 10.2 91 0.7 W 33 52 18 28 1017.5 1017.5 1.6
28/02:49am 11.7 5.2 10.3 91 0.7 W 35 52 19 28 1017.5 1017.5 1.6
28/02:38am 11.6 4.2 10.0 90 0.8 W 39 59 21 32 1017.5 1017.5 1.6
28/02:30am 11.1 3.6 9.5 90 0.8 W 39 56 21 30 1017.5 1017.5 1.6
28/02:18am 11.6 4.9 9.7 88 1.0 W 35 56 19 30 1017.5 1017.5 1.6
28/02:00am 11.8 5.6 9.5 86 1.2 W 32 43 17 23 1017.6 1017.6 1.6
28/01:30am 11.3 5.2 9.6 89 0.9 W 32 48 17 26 1017.4 1017.4 1.6
28/01:15am 11.8 5.4 9.4 85 1.2 W 33 54 18 29 1017.4 1017.4 1.6
28/01:00am 11.5 5.1 9.2 86 1.2 W 33 46 18 25 1017.4 1017.4 1.6
28/12:30am 11.3 4.5 9.4 88 1.0 W 35 54 19 29 1017.4 1017.4 1.6
28/12:21am 11.3 5.2 9.7 90 0.8 W 32 54 17 29 1017.4 1017.4 1.6
28/12:00am 11.1 4.3 9.2 88 0.9 W 35 50 19 27 1017.4 1017.4 1.4
 
Date/Time
EST
Temp
°C
App
Temp
°C
Dew
Point
°C
Rel
Hum
%
Delta-T
°C
Wind Press
QNH
hPa
Press
MSL
hPa
Rain since
9am
mm
Dir  Spd
km/h
Gust
km/h
Spd
kts
Gust
kts
27/11:30pm 11.3 5.0 9.6 89 0.9 W 33 57 18 31 1017.3 1017.3 1.0
27/11:20pm 11.2 4.0 9.3 88 1.0 W 37 56 20 30 1017.3 1017.3 1.0
27/11:00pm 11.5 5.1 9.2 86 1.2 W 33 50 18 27 1017.1 1017.1 1.0
27/10:30pm 11.2 4.5 9.5 89 0.9 W 35 54 19 29 1017.3 1017.3 1.0
27/10:28pm 11.4 5.1 9.8 90 0.8 W 33 54 18 29 1017.4 1017.4 1.0
27/10:21pm 11.5 4.5 10.1 91 0.7 W 37 52 20 28 1017.4 1017.4 1.0
27/10:08pm 10.9 3.0 9.5 91 0.7 WSW 41 59 22 32 1017.4 1017.4 1.0
27/10:05pm 10.9 2.6 9.3 90 0.8 W 43 59 23 32 1017.4 1017.4 1.0
27/10:00pm 11.6 3.4 9.7 88 1.0 W 43 57 23 31 1017.3 1017.3 0.8
27/09:30pm 11.3 3.7 9.2 87 1.1 W 39 63 21 34 1017.1 1017.1 0.8
27/09:06pm 12.0 4.8 9.0 82 1.5 W 37 56 20 30 1016.9 1016.9 0.8
27/09:00pm 11.8 4.2 9.0 83 1.4 W 39 56 21 30 1016.8 1016.8 0.8
27/08:42pm 11.7 4.8 8.9 83 1.4 W 35 54 19 29 1016.6 1016.6 0.8
27/08:30pm 11.8 4.5 8.6 81 1.6 W 37 52 20 28 1016.7 1016.7 0.8
27/08:00pm 11.5 3.9 9.2 86 1.2 W 39 67 21 36 1016.6 1016.6 0.8
27/07:43pm 11.0 2.7 9.3 89 0.9 W 43 74 23 40 1016.4 1016.4 0.8
27/07:37pm 11.0 3.4 9.1 88 0.9 W 39 74 21 40 1016.4 1016.4 0.6
27/07:30pm 11.1 3.2 9.2 88 0.9 WSW 41 56 22 30 1016.4 1016.4 0.6
27/07:28pm 11.2 2.8 9.1 87 1.0 WSW 43 57 23 31 1016.4 1016.4 0.6
27/07:00pm 11.0 3.3 8.6 85 1.2 W 39 57 21 31 1016.1 1016.1 0.4
27/06:45pm 11.0 3.7 8.9 87 1.0 W 37 56 20 30 1016.0 1016.0 0.4
27/06:40pm 10.9 3.2 8.8 87 1.0 W 39 56 21 30 1016.0 1016.0 0.4
27/06:32pm 10.8 2.3 8.7 87 1.0 W 43 61 23 33 1016.0 1016.0 0.4
27/06:30pm 10.8 2.2 8.9 88 0.9 W 44 61 24 33 1016.0 1016.0 0.4
27/06:25pm 10.9 2.4 8.7 86 1.1 W 43 61 23 33 1015.9 1015.9 0.4
27/06:01pm 10.8 2.7 8.6 86 1.1 W 41 61 22 33 1015.4 1015.4 0.4
27/06:00pm 10.7 2.6 8.5 86 1.1 W 41 56 22 30 1015.4 1015.4 0.4
27/05:34pm 11.2 2.4 7.3 77 1.9 W 43 61 23 33 1015.2 1015.2 0.4
27/05:30pm 11.2 2.6 6.7 74 2.1 W 41 56 22 30 1015.1 1015.1 0.4
27/05:00pm 11.0 2.8 6.4 73 2.2 W 39 57 21 31 1014.8 1014.8 0.4
27/04:41pm 10.8 2.5 6.2 73 2.1 W 39 57 21 31 1014.6 1014.6 0.4
27/04:30pm 10.8 2.2 6.4 74 2.1 W 41 57 22 31 1014.5 1014.5 0.4
27/04:06pm 10.5 2.2 5.9 73 2.1 W 39 59 21 32 1014.3 1014.3 0.4
27/04:00pm 10.4 2.1 6.0 74 2.0 W 39 54 21 29 1014.3 1014.3 0.4
27/03:40pm 10.3 2.3 5.5 72 2.2 W 37 57 20 31 1014.5 1014.5 0.4
27/03:30pm 10.2 1.2 4.8 69 2.4 W 41 56 22 30 1014.4 1014.4 0.4
27/03:00pm 9.7 1.7 5.7 76 1.8 W 37 52 20 28 1014.4 1014.4 0.2
27/02:33pm 9.2 0.7 5.2 76 1.8 W 39 57 21 31 1014.2 1014.2 0.2
27/02:30pm 9.5 0.7 5.5 76 1.8 W 41 57 22 31 1014.2 1014.2 0.2
27/02:21pm 10.0 1.4 4.4 68 2.5 W 39 57 21 31 1014.0 1014.0 0.2
27/02:00pm 10.3 2.2 5.1 70 2.4 W 37 50 20 27 1013.9 1013.9 0.2
27/01:39pm 9.5 1.3 4.9 73 2.1 W 37 56 20 30 1013.8 1013.8 0.2
27/01:30pm 9.9 2.0 4.5 69 2.4 W 35 52 19 28 1013.6 1013.6 0.2
27/01:19pm 9.4 1.9 4.2 70 2.3 W 33 52 18 28 1013.7 1013.7 0.2
27/01:00pm 9.9 2.4 4.7 70 2.3 W 33 48 18 26 1013.8 1013.8 0.2
27/12:42pm 10.6 2.5 3.2 60 3.2 W 35 56 19 30 1013.8 1013.8 0.2
27/12:30pm 9.4 1.9 3.6 67 2.5 WSW 32 43 17 23 1013.6 1013.6 0.2
27/12:23pm 9.5 2.3 5.1 74 2.0 WSW 32 50 17 27 1013.6 1013.6 0.2
27/12:00pm 9.8 2.2 4.0 67 2.6 W 33 46 18 25 1013.6 1013.6 0.2
27/11:30am 8.7 0.8 4.5 75 1.9 W 35 56 19 30 1014.0 1014.0 0.2
27/11:00am 9.1 2.0 3.3 67 2.5 WSW 30 52 16 28 1013.6 1013.6 0.0
27/10:46am 8.9 1.3 3.7 70 2.3 WSW 33 52 18 28 1013.3 1013.3 0.0
27/10:30am 10.2 3.4 3.3 62 3.0 SW 28 44 15 24 1012.9 1012.9 0.0
27/10:09am 9.4 2.7 3.6 67 2.5 SW 28 46 15 25 1012.5 1012.5 0.0
27/10:00am 9.2 4.0 3.8 69 2.4 SW 20 30 11 16 1012.4 1012.4 0.0

Other Formats:

Comma delimited format used in spreadsheet applications
http://www.bom.gov.au/fwo/IDT60801/IDT60801.94850.axf

JavaScript Object Notation format (JSON) in row-major order
http://www.bom.gov.au/fwo/IDT60801/IDT60801.94850.json